Time;durP1;ratioP1;P1;durP2;ratioP2;P2;SDS_P1;SDS_P2;PMS_P1;PMS_P2;Temp;Humidity;BMP_temperature;BMP_pressure;BME280_temperature;BME280_humidity;BME280_pressure;Samples;Min_cycle;Max_cycle;Signal;HPM_P1;HPM_P2
2022/06/25 00:02:02;;;;;;;13.88;1.80;;;;;;;;;;4983797;28;20027;-65
2022/06/25 00:07:13;;;;;;;12.13;2.30;;;;;;;;;;4982598;28;20066;-64
2022/06/25 00:09:39;;;;;;;11.30;2.03;;;;;;;;;;4988608;28;20019;-65
2022/06/25 00:14:50;;;;;;;14.65;2.20;;;;;;;;;;4979418;28;20109;-65
2022/06/25 00:17:19;;;;;;;11.68;2.20;;;;;;;;;;4990539;28;20027;-64
2022/06/25 00:19:45;;;;;;;14.60;2.20;;;;;;;;;;4980492;28;20031;-65
2022/06/25 00:22:11;;;;;;;14.43;2.15;;;;;;;;;;4984194;28;20027;-65
2022/06/25 00:24:38;;;;;;;16.92;2.70;;;;;;;;;;4987807;28;20041;-65
2022/06/25 00:27:04;;;;;;;13.35;1.98;;;;;;;;;;4977592;28;20023;-65
2022/06/25 00:29:30;;;;;;;5.88;1.80;;;;;;;;;;4988465;28;20119;-65
2022/06/25 00:31:57;;;;;;;13.40;2.95;;;;;;;;;;4982349;28;20105;-65
2022/06/25 00:34:25;;;;;;;17.30;4.07;;;;;;;;;;4982086;28;20081;-65
2022/06/25 00:36:54;;;;;;;13.27;2.33;;;;;;;;;;4989727;28;20550;-65
2022/06/25 00:39:20;;;;;;;21.77;3.35;;;;;;;;;;4990254;28;20030;-65
2022/06/25 00:41:47;;;;;;;20.27;2.65;;;;;;;;;;4980520;28;20483;-65
2022/06/25 00:44:13;;;;;;;13.70;2.53;;;;;;;;;;4982887;28;20081;-65
2022/06/25 00:46:39;;;;;;;12.85;2.13;;;;;;;;;;4986100;28;20029;-65
2022/06/25 00:49:05;;;;;;;21.98;3.47;;;;;;;;;;4975895;28;20085;-65
2022/06/25 00:51:38;;;;;;;22.95;3.08;;;;;;;;;;4989705;28;20027;-65
2022/06/25 00:54:05;;;;;;;15.18;2.40;;;;;;;;;;4982148;28;20034;-65
2022/06/25 00:56:37;;;;;;;8.48;1.98;;;;;;;;;;4981786;28;20479;-64
2022/06/25 00:59:04;;;;;;;14.73;2.40;;;;;;;;;;4990051;28;20022;-64
2022/06/25 01:01:32;;;;;;;11.60;2.30;;;;;;;;;;4987875;28;20023;-65
2022/06/25 01:03:58;;;;;;;11.20;1.88;;;;;;;;;;4981373;28;20034;-64
2022/06/25 01:06:25;;;;;;;19.05;2.65;;;;;;;;;;4981258;28;20550;-64
2022/06/25 01:08:51;;;;;;;16.95;2.75;;;;;;;;;;4986911;28;20054;-65
2022/06/25 01:11:17;;;;;;;5.63;2.33;;;;;;;;;;4975692;28;20031;-65
2022/06/25 01:13:43;;;;;;;9.82;2.40;;;;;;;;;;4986807;28;20594;-65
2022/06/25 01:16:10;;;;;;;13.00;2.42;;;;;;;;;;4981070;28;20050;-65
2022/06/25 01:18:36;;;;;;;13.35;3.50;;;;;;;;;;4980481;28;20121;-65
2022/06/25 01:21:02;;;;;;;8.45;2.10;;;;;;;;;;4988168;28;20493;-65
2022/06/25 01:23:30;;;;;;;18.25;2.25;;;;;;;;;;4975125;28;20498;-65
2022/06/25 01:25:56;;;;;;;10.77;2.60;;;;;;;;;;4985215;28;20080;-64
2022/06/25 01:28:22;;;;;;;14.60;3.20;;;;;;;;;;4983530;28;20050;-65
2022/06/25 01:30:49;;;;;;;11.77;2.92;;;;;;;;;;4978189;28;20052;-65
2022/06/25 01:33:15;;;;;;;15.82;2.33;;;;;;;;;;4988023;28;20034;-64
2022/06/25 01:35:41;;;;;;;10.98;2.33;;;;;;;;;;4976752;28;20026;-64
2022/06/25 01:38:07;;;;;;;10.07;2.03;;;;;;;;;;4984551;28;20479;-64
2022/06/25 01:40:33;;;;;;;13.35;1.92;;;;;;;;;;4984582;28;20014;-65
2022/06/25 01:43:00;;;;;;;12.20;3.00;;;;;;;;;;4976843;28;20483;-65
2022/06/25 01:45:30;;;;;;;12.27;2.88;;;;;;;;;;4988640;28;20069;-65
2022/06/25 01:47:57;;;;;;;11.90;2.15;;;;;;;;;;4992691;28;20022;-65
2022/06/25 01:50:23;;;;;;;15.30;2.72;;;;;;;;;;4982587;28;20058;-65
2022/06/25 01:52:49;;;;;;;12.52;2.47;;;;;;;;;;4971794;28;20415;-65
2022/06/25 01:55:16;;;;;;;10.45;1.80;;;;;;;;;;4972992;28;20019;-65
2022/06/25 01:57:42;;;;;;;10.35;2.28;;;;;;;;;;4971476;28;20109;-65
2022/06/25 02:00:12;;;;;;;16.60;2.65;;;;;;;;;;4971884;28;20027;-65
2022/06/25 02:02:44;;;;;;;7.47;2.13;;;;;;;;;;4971795;28;20037;-66
2022/06/25 02:05:11;;;;;;;10.63;1.77;;;;;;;;;;4972952;28;20121;-65
2022/06/25 02:07:38;;;;;;;7.32;1.98;;;;;;;;;;4990453;28;20034;-65
2022/06/25 02:10:04;;;;;;;9.50;1.92;;;;;;;;;;4992277;28;20486;-65
2022/06/25 02:12:30;;;;;;;11.93;2.22;;;;;;;;;;4983568;28;20035;-65
2022/06/25 02:14:57;;;;;;;9.30;2.15;;;;;;;;;;4986673;28;20495;-65
2022/06/25 02:17:23;;;;;;;8.43;1.63;;;;;;;;;;4990052;28;20458;-65
2022/06/25 02:19:50;;;;;;;18.33;4.78;;;;;;;;;;4987379;28;20031;-65
2022/06/25 02:22:16;;;;;;;8.52;1.90;;;;;;;;;;4978992;28;20418;-65
2022/06/25 02:24:43;;;;;;;13.73;2.13;;;;;;;;;;4984731;28;20073;-65
2022/06/25 02:27:10;;;;;;;10.32;2.22;;;;;;;;;;4977169;28;20394;-65
2022/06/25 02:29:37;;;;;;;14.60;2.63;;;;;;;;;;4990304;28;20046;-65
2022/06/25 02:32:04;;;;;;;15.10;2.80;;;;;;;;;;4978287;28;20369;-65
2022/06/25 02:34:31;;;;;;;15.48;2.80;;;;;;;;;;4984778;28;20034;-65
2022/06/25 02:36:57;;;;;;;17.63;2.40;;;;;;;;;;4994570;28;20063;-65
2022/06/25 02:39:27;;;;;;;11.02;2.20;;;;;;;;;;4978302;28;20046;-65
2022/06/25 02:41:53;;;;;;;13.77;2.88;;;;;;;;;;4989536;28;20031;-65
2022/06/25 02:44:21;;;;;;;14.05;2.13;;;;;;;;;;4983620;28;20065;-65
2022/06/25 02:46:53;;;;;;;17.58;3.13;;;;;;;;;;4982209;28;20031;-65
2022/06/25 02:49:23;;;;;;;6.40;2.15;;;;;;;;;;4975127;28;20038;-65
2022/06/25 02:51:49;;;;;;;10.95;2.90;;;;;;;;;;4977766;28;20034;-65
2022/06/25 02:54:15;;;;;;;12.82;2.63;;;;;;;;;;4982577;28;20104;-65
2022/06/25 02:59:28;;;;;;;15.50;2.97;;;;;;;;;;4992311;28;20035;-65
2022/06/25 03:01:55;;;;;;;10.13;2.78;;;;;;;;;;4988849;28;20022;-65
2022/06/25 03:04:26;;;;;;;10.93;2.50;;;;;;;;;;4984152;28;20037;-65
2022/06/25 03:06:54;;;;;;;12.73;3.38;;;;;;;;;;4981880;28;20045;-65
2022/06/25 03:09:21;;;;;;;12.30;2.72;;;;;;;;;;4990740;28;20450;-65
2022/06/25 03:11:48;;;;;;;13.15;3.00;;;;;;;;;;4976821;28;20050;-65
2022/06/25 03:14:14;;;;;;;14.13;2.72;;;;;;;;;;4985980;28;20109;-65
2022/06/25 03:16:41;;;;;;;17.08;2.80;;;;;;;;;;4985192;28;20033;-65
2022/06/25 03:19:09;;;;;;;19.52;2.88;;;;;;;;;;4979828;28;20045;-65
2022/06/25 03:22:14;;;;;;;9.30;2.25;;;;;;;;;;4982214;28;20038;-65
2022/06/25 03:24:41;;;;;;;15.25;3.30;;;;;;;;;;4979538;28;20062;-65
2022/06/25 03:27:07;;;;;;;16.10;2.83;;;;;;;;;;4975193;28;20062;-65
2022/06/25 03:29:34;;;;;;;16.27;2.80;;;;;;;;;;4982816;28;20042;-65
2022/06/25 03:32:00;;;;;;;12.50;2.42;;;;;;;;;;4974588;28;20058;-65
2022/06/25 03:34:44;;;;;;;16.38;2.08;;;;;;;;;;4977376;28;20116;-65
2022/06/25 03:37:11;;;;;;;8.40;1.90;;;;;;;;;;4977532;28;20402;-65
2022/06/25 03:39:37;;;;;;;8.48;2.35;;;;;;;;;;4985509;28;20049;-65
2022/06/25 03:42:04;;;;;;;10.40;2.08;;;;;;;;;;4973478;28;20034;-64
2022/06/25 03:44:44;;;;;;;15.10;1.90;;;;;;;;;;4977455;28;20663;-65
2022/06/25 03:47:19;;;;;;;7.28;1.98;;;;;;;;;;4973880;28;20031;-65
2022/06/25 03:49:45;;;;;;;9.70;1.98;;;;;;;;;;4980379;28;20506;-65
2022/06/25 03:52:15;;;;;;;10.13;2.38;;;;;;;;;;4978040;28;20022;-65
2022/06/25 03:54:42;;;;;;;8.75;1.80;;;;;;;;;;4986146;28;20030;-65
2022/06/25 03:57:10;;;;;;;8.65;2.15;;;;;;;;;;4991288;28;20042;-64
2022/06/25 03:59:59;;;;;;;14.65;2.83;;;;;;;;;;4981432;28;20490;-65
2022/06/25 04:02:27;;;;;;;12.68;2.83;;;;;;;;;;4983101;28;20287;-64
2022/06/25 04:05:12;;;;;;;7.93;2.10;;;;;;;;;;4985026;28;20165;-65
2022/06/25 04:07:38;;;;;;;6.68;2.33;;;;;;;;;;4974854;28;20113;-64
2022/06/25 04:10:07;;;;;;;8.80;1.98;;;;;;;;;;4987915;28;20034;-65
2022/06/25 04:12:33;;;;;;;6.72;2.47;;;;;;;;;;4979470;28;20436;-65
2022/06/25 04:14:59;;;;;;;8.93;2.05;;;;;;;;;;4997241;28;20029;-65
2022/06/25 04:17:26;;;;;;;8.30;1.90;;;;;;;;;;4983144;28;20081;-65
2022/06/25 04:19:52;;;;;;;14.85;2.95;;;;;;;;;;4984848;28;20145;-65
2022/06/25 04:22:19;;;;;;;10.45;2.20;;;;;;;;;;4981801;28;20025;-65
2022/06/25 04:24:46;;;;;;;11.85;2.60;;;;;;;;;;4975891;28;20114;-64
2022/06/25 04:29:03;;;;;;;8.50;2.10;;;;;;;;;;4985421;28;20027;-65
2022/06/25 04:29:59;;;;;;;10.40;2.42;;;;;;;;;;5001547;28;20043;-64
2022/06/25 04:32:25;;;;;;;6.55;1.85;;;;;;;;;;4984866;28;20112;-64
2022/06/25 04:35:13;;;;;;;7.43;2.00;;;;;;;;;;4985376;28;20256;-64
2022/06/25 04:37:42;;;;;;;8.48;2.00;;;;;;;;;;4980447;28;20046;-65
2022/06/25 04:40:10;;;;;;;14.68;2.03;;;;;;;;;;4990280;28;20106;-64
2022/06/25 04:42:37;;;;;;;6.93;1.63;;;;;;;;;;4988647;28;20030;-65
2022/06/25 04:45:03;;;;;;;11.85;2.15;;;;;;;;;;4987172;28;20049;-65
2022/06/25 04:47:36;;;;;;;8.73;3.10;;;;;;;;;;4990401;28;20121;-65
2022/06/25 04:50:22;;;;;;;12.98;2.75;;;;;;;;;;4987138;28;20046;-65
2022/06/25 04:52:48;;;;;;;18.38;2.72;;;;;;;;;;4995086;28;20141;-65
2022/06/25 04:55:14;;;;;;;9.25;2.30;;;;;;;;;;4990480;28;20022;-65
2022/06/25 04:57:40;;;;;;;13.75;2.42;;;;;;;;;;4987466;28;20026;-65
2022/06/25 05:00:25;;;;;;;10.75;2.67;;;;;;;;;;4971267;28;20038;-65
2022/06/25 05:02:51;;;;;;;16.60;2.28;;;;;;;;;;4979757;28;20498;-65
2022/06/25 05:05:19;;;;;;;12.02;2.65;;;;;;;;;;4981817;28;20110;-64
2022/06/25 05:07:45;;;;;;;20.95;2.78;;;;;;;;;;4977533;28;20034;-65
2022/06/25 05:10:11;;;;;;;11.82;2.72;;;;;;;;;;4982871;28;20045;-65
2022/06/25 05:15:22;;;;;;;11.75;2.80;;;;;;;;;;4989171;28;20084;-65
2022/06/25 05:17:49;;;;;;;10.00;2.63;;;;;;;;;;4981701;28;20495;-65
2022/06/25 05:20:19;;;;;;;9.20;2.30;;;;;;;;;;4977121;28;20023;-65
2022/06/25 05:22:45;;;;;;;13.25;2.88;;;;;;;;;;4983624;28;20442;-65
2022/06/25 05:25:11;;;;;;;12.05;3.17;;;;;;;;;;4986391;28;20410;-65
2022/06/25 05:27:38;;;;;;;9.23;2.55;;;;;;;;;;4988154;28;20034;-65
2022/06/25 05:30:04;;;;;;;14.65;3.08;;;;;;;;;;4989880;28;20054;-65
2022/06/25 05:32:31;;;;;;;9.32;2.33;;;;;;;;;;4985957;28;20026;-65
2022/06/25 05:34:57;;;;;;;14.10;3.42;;;;;;;;;;4981103;28;20041;-65
2022/06/25 05:37:24;;;;;;;16.13;2.85;;;;;;;;;;4977687;28;20442;-65
2022/06/25 05:39:50;;;;;;;17.77;3.63;;;;;;;;;;4982249;28;20113;-65
2022/06/25 05:42:16;;;;;;;11.30;3.28;;;;;;;;;;4983127;28;20026;-65
2022/06/25 05:44:43;;;;;;;11.35;3.10;;;;;;;;;;4977576;28;20046;-65
2022/06/25 05:47:09;;;;;;;8.85;2.70;;;;;;;;;;4975909;28;20035;-65
2022/06/25 05:49:36;;;;;;;9.27;2.20;;;;;;;;;;4976309;28;20031;-65
2022/06/25 05:52:02;;;;;;;10.95;3.00;;;;;;;;;;4980428;28;20098;-65
2022/06/25 05:54:28;;;;;;;10.05;2.40;;;;;;;;;;4983883;28;20092;-65
2022/06/25 05:56:54;;;;;;;10.43;2.50;;;;;;;;;;4981088;28;20023;-65
2022/06/25 05:59:20;;;;;;;10.35;2.50;;;;;;;;;;4976393;28;20547;-65
2022/06/25 06:01:47;;;;;;;14.07;3.03;;;;;;;;;;4975258;28;20022;-65
2022/06/25 06:04:13;;;;;;;10.80;2.85;;;;;;;;;;4979139;28;20026;-65
2022/06/25 06:06:39;;;;;;;10.55;2.78;;;;;;;;;;4977300;28;20030;-65
2022/06/25 06:09:05;;;;;;;9.48;2.35;;;;;;;;;;4978610;28;20027;-65
2022/06/25 06:11:31;;;;;;;14.27;3.00;;;;;;;;;;4979964;28;20034;-65
2022/06/25 06:13:57;;;;;;;11.18;2.55;;;;;;;;;;4976704;28;20037;-65
2022/06/25 06:16:23;;;;;;;12.32;2.72;;;;;;;;;;4980885;28;20015;-65
2022/06/25 06:18:49;;;;;;;11.70;2.92;;;;;;;;;;4985517;28;20398;-65
2022/06/25 06:21:16;;;;;;;10.40;2.88;;;;;;;;;;4978743;28;20471;-65
2022/06/25 06:23:42;;;;;;;15.57;3.28;;;;;;;;;;4983926;28;20034;-65
2022/06/25 06:26:08;;;;;;;8.93;3.33;;;;;;;;;;4976274;28;20023;-65
2022/06/25 06:28:34;;;;;;;12.48;2.97;;;;;;;;;;4978258;28;20019;-65
2022/06/25 06:31:00;;;;;;;13.55;2.75;;;;;;;;;;4985101;28;20084;-64
2022/06/25 06:33:26;;;;;;;13.82;2.40;;;;;;;;;;4977090;28;20071;-65
2022/06/25 06:35:52;;;;;;;9.88;2.47;;;;;;;;;;4976054;28;20050;-65
2022/06/25 06:38:19;;;;;;;8.57;3.03;;;;;;;;;;4979163;28;20022;-65
2022/06/25 06:40:45;;;;;;;11.93;3.00;;;;;;;;;;4979497;28;20034;-65
2022/06/25 06:43:11;;;;;;;12.57;2.67;;;;;;;;;;4980860;28;20038;-65
2022/06/25 06:45:37;;;;;;;13.32;2.67;;;;;;;;;;4979979;28;20026;-63
2022/06/25 06:48:03;;;;;;;11.38;2.70;;;;;;;;;;4978303;28;20033;-64
2022/06/25 06:50:29;;;;;;;8.75;2.45;;;;;;;;;;4975569;28;20034;-64
2022/06/25 06:52:56;;;;;;;6.03;2.50;;;;;;;;;;4978418;28;20027;-64
2022/06/25 06:55:22;;;;;;;12.30;2.97;;;;;;;;;;4976467;28;20034;-64
2022/06/25 06:57:48;;;;;;;14.68;3.42;;;;;;;;;;4978764;28;20089;-64
2022/06/25 07:00:14;;;;;;;10.48;2.65;;;;;;;;;;4976493;28;20050;-64
2022/06/25 07:02:40;;;;;;;12.88;2.88;;;;;;;;;;4971821;28;20426;-64
2022/06/25 07:05:07;;;;;;;10.00;2.85;;;;;;;;;;4976457;28;20037;-63
2022/06/25 07:07:33;;;;;;;17.33;3.17;;;;;;;;;;4981561;28;20101;-63
2022/06/25 07:10:25;;;;;;;12.75;3.35;;;;;;;;;;4983142;28;20509;-64
2022/06/25 07:12:56;;;;;;;12.23;3.08;;;;;;;;;;4981958;28;20125;-64
2022/06/25 07:15:23;;;;;;;11.20;2.72;;;;;;;;;;4987138;28;20035;-63
2022/06/25 07:18:15;;;;;;;11.88;3.45;;;;;;;;;;4983001;28;20045;-64
2022/06/25 07:20:43;;;;;;;9.95;2.65;;;;;;;;;;4985356;28;20018;-63
2022/06/25 07:23:09;;;;;;;17.92;3.38;;;;;;;;;;4979765;28;20022;-63
2022/06/25 07:25:41;;;;;;;12.30;3.10;;;;;;;;;;4980534;28;20038;-63
2022/06/25 07:28:07;;;;;;;12.63;2.90;;;;;;;;;;4990198;28;20030;-63
2022/06/25 07:34:01;;;;;;;17.15;3.20;;;;;;;;;;4986502;28;20491;-63
2022/06/25 07:36:27;;;;;;;18.33;3.65;;;;;;;;;;4978638;28;20142;-63
2022/06/25 07:38:53;;;;;;;15.60;3.45;;;;;;;;;;4978492;28;20443;-63
2022/06/25 07:41:20;;;;;;;10.77;3.30;;;;;;;;;;4988538;28;20034;-63
2022/06/25 07:43:46;;;;;;;17.52;3.30;;;;;;;;;;4978034;28;20049;-63
2022/06/25 07:46:12;;;;;;;10.65;3.20;;;;;;;;;;4982747;28;20019;-63
2022/06/25 07:48:39;;;;;;;15.98;2.92;;;;;;;;;;4976889;28;20031;-63
2022/06/25 07:53:49;;;;;;;20.23;3.03;;;;;;;;;;4977754;28;20685;-63
2022/06/25 07:56:16;;;;;;;10.40;3.40;;;;;;;;;;4984123;28;20048;-63
2022/06/25 07:58:42;;;;;;;15.55;3.60;;;;;;;;;;4976508;28;20109;-63
2022/06/25 08:01:08;;;;;;;13.35;3.10;;;;;;;;;;4985324;28;20118;-63
2022/06/25 08:03:34;;;;;;;14.95;3.08;;;;;;;;;;4994278;28;20110;-63
2022/06/25 08:06:01;;;;;;;14.75;3.15;;;;;;;;;;4981184;28;20039;-64
2022/06/25 08:08:27;;;;;;;15.32;3.30;;;;;;;;;;4986569;28;20355;-63
2022/06/25 08:10:53;;;;;;;13.55;3.13;;;;;;;;;;4975265;28;20094;-63
2022/06/25 08:13:19;;;;;;;15.35;3.00;;;;;;;;;;4989691;28;20022;-63
2022/06/25 08:15:45;;;;;;;11.27;2.72;;;;;;;;;;4983116;28;20490;-63
2022/06/25 08:18:12;;;;;;;17.08;3.55;;;;;;;;;;4982486;28;20073;-63
2022/06/25 08:20:38;;;;;;;12.43;3.90;;;;;;;;;;4977987;28;20019;-63
2022/06/25 08:23:04;;;;;;;19.02;3.00;;;;;;;;;;4986158;28;20487;-63
2022/06/25 08:25:30;;;;;;;16.00;3.17;;;;;;;;;;4977876;28;20022;-63
2022/06/25 08:27:56;;;;;;;15.15;2.95;;;;;;;;;;4978995;28;20086;-64
2022/06/25 08:30:23;;;;;;;16.05;3.40;;;;;;;;;;4978569;28;20043;-64
2022/06/25 08:32:50;;;;;;;13.85;2.90;;;;;;;;;;4976404;28;20034;-64
2022/06/25 08:35:16;;;;;;;13.15;2.95;;;;;;;;;;4979318;28;20058;-64
2022/06/25 08:37:46;;;;;;;10.32;2.70;;;;;;;;;;4981682;28;20030;-64
2022/06/25 08:40:13;;;;;;;11.73;3.00;;;;;;;;;;4982492;28;20023;-64
2022/06/25 08:42:39;;;;;;;13.43;2.75;;;;;;;;;;4981201;28;20039;-64
2022/06/25 08:45:05;;;;;;;9.23;2.85;;;;;;;;;;4983726;28;20069;-64
2022/06/25 08:47:31;;;;;;;13.00;3.05;;;;;;;;;;4982690;28;20024;-64
2022/06/25 08:49:58;;;;;;;10.88;2.60;;;;;;;;;;4984540;28;20030;-64
2022/06/25 08:52:27;;;;;;;11.13;2.92;;;;;;;;;;4978915;28;20030;-64
2022/06/25 08:54:54;;;;;;;10.70;2.50;;;;;;;;;;4985610;28;20066;-64
2022/06/25 08:57:21;;;;;;;13.13;3.30;;;;;;;;;;4980998;28;20023;-64
2022/06/25 08:59:47;;;;;;;12.55;2.28;;;;;;;;;;4986450;28;20399;-64
2022/06/25 09:02:13;;;;;;;11.27;2.92;;;;;;;;;;4983884;28;20023;-64
2022/06/25 09:04:39;;;;;;;12.32;2.60;;;;;;;;;;4979873;28;20042;-64
2022/06/25 09:07:17;;;;;;;9.60;2.50;;;;;;;;;;4977558;28;20030;-65
2022/06/25 09:09:46;;;;;;;12.82;2.75;;;;;;;;;;4978294;28;20117;-64
2022/06/25 09:12:16;;;;;;;9.43;2.58;;;;;;;;;;4979981;28;20487;-64
2022/06/25 09:14:43;;;;;;;13.48;2.45;;;;;;;;;;4977996;28;20065;-64
2022/06/25 09:17:12;;;;;;;15.52;2.90;;;;;;;;;;4975872;28;20018;-64
2022/06/25 09:19:38;;;;;;;7.40;2.08;;;;;;;;;;4974096;28;20314;-65
2022/06/25 09:22:05;;;;;;;10.13;2.40;;;;;;;;;;4979608;28;20068;-65
2022/06/25 09:24:44;;;;;;;12.35;2.33;;;;;;;;;;4983638;28;20026;-65
2022/06/25 09:27:10;;;;;;;11.45;2.30;;;;;;;;;;4980602;28;20030;-64
2022/06/25 09:29:40;;;;;;;7.00;2.25;;;;;;;;;;4975309;28;20418;-64
2022/06/25 09:32:07;;;;;;;6.00;1.80;;;;;;;;;;4980252;28;20030;-64
2022/06/25 09:34:34;;;;;;;6.28;1.70;;;;;;;;;;4978620;28;20441;-64
2022/06/25 09:37:17;;;;;;;6.45;1.85;;;;;;;;;;4979729;28;20034;-65
2022/06/25 09:39:45;;;;;;;7.65;1.55;;;;;;;;;;4983423;28;20317;-65
2022/06/25 09:42:21;;;;;;;6.82;1.58;;;;;;;;;;4980393;28;20046;-65
2022/06/25 09:44:48;;;;;;;6.68;1.60;;;;;;;;;;4985079;28;20022;-65
2022/06/25 09:47:15;;;;;;;8.07;2.13;;;;;;;;;;4980180;28;20058;-65
2022/06/25 09:49:41;;;;;;;8.80;2.10;;;;;;;;;;4981143;28;20026;-65
2022/06/25 09:52:08;;;;;;;11.25;2.10;;;;;;;;;;4987830;28;20506;-65
2022/06/25 09:54:34;;;;;;;7.63;1.83;;;;;;;;;;4983029;28;20027;-65
2022/06/25 09:57:01;;;;;;;9.60;2.05;;;;;;;;;;4984846;28;20035;-65
2022/06/25 09:59:30;;;;;;;8.32;1.88;;;;;;;;;;4977564;28;20030;-65
2022/06/25 10:01:58;;;;;;;5.88;2.50;;;;;;;;;;4977497;28;20026;-65
2022/06/25 10:04:27;;;;;;;6.65;2.00;;;;;;;;;;4978723;28;20030;-65
2022/06/25 10:06:56;;;;;;;5.32;2.33;;;;;;;;;;4977779;28;20124;-64
2022/06/25 10:09:25;;;;;;;5.80;1.58;;;;;;;;;;4982095;28;20022;-63
2022/06/25 10:11:52;;;;;;;10.23;1.60;;;;;;;;;;4986612;28;20036;-63
2022/06/25 10:14:19;;;;;;;5.88;1.83;;;;;;;;;;4983282;28;20038;-63
2022/06/25 10:16:45;;;;;;;4.10;1.80;;;;;;;;;;4973273;28;20027;-63
2022/06/25 10:19:14;;;;;;;3.45;1.30;;;;;;;;;;4978321;28;20546;-62
2022/06/25 10:21:41;;;;;;;8.05;2.00;;;;;;;;;;4982179;28;20034;-62
2022/06/25 10:24:07;;;;;;;9.25;1.52;;;;;;;;;;4986296;28;20054;-62
2022/06/25 10:26:34;;;;;;;8.35;1.65;;;;;;;;;;4978143;28;20058;-63
2022/06/25 10:29:02;;;;;;;7.25;1.70;;;;;;;;;;4979717;28;20061;-63
2022/06/25 10:31:28;;;;;;;7.65;1.38;;;;;;;;;;4977848;28;20141;-63
2022/06/25 10:33:59;;;;;;;4.43;1.83;;;;;;;;;;4978652;28;20398;-62
2022/06/25 10:36:43;;;;;;;3.10;1.20;;;;;;;;;;4987740;28;20019;-62
2022/06/25 10:39:28;;;;;;;3.55;1.48;;;;;;;;;;4977182;28;20022;-63
2022/06/25 10:45:07;;;;;;;9.30;2.85;;;;;;;;;;4977053;28;20038;-63
2022/06/25 10:47:52;;;;;;;9.55;2.00;;;;;;;;;;4977739;28;20027;-63
2022/06/25 10:50:21;;;;;;;7.85;2.10;;;;;;;;;;4979437;28;20030;-63
2022/06/25 10:55:29;;;;;;;10.15;1.80;;;;;;;;;;4982516;28;20502;-63
2022/06/25 10:58:10;;;;;;;5.28;1.90;;;;;;;;;;4983455;28;20053;-63
2022/06/25 11:00:48;;;;;;;6.50;1.80;;;;;;;;;;4980193;28;20084;-63
2022/06/25 11:03:15;;;;;;;5.32;1.52;;;;;;;;;;4983201;28;20022;-62
2022/06/25 11:05:42;;;;;;;7.47;1.83;;;;;;;;;;4985071;28;20034;-63
2022/06/25 11:08:08;;;;;;;5.72;2.03;;;;;;;;;;4985182;28;20556;-63
2022/06/25 11:10:35;;;;;;;13.02;2.42;;;;;;;;;;4984676;28;20034;-63
2022/06/25 11:13:03;;;;;;;4.47;2.00;;;;;;;;;;4981956;28;20054;-62
2022/06/25 11:15:49;;;;;;;10.50;1.92;;;;;;;;;;4986090;28;20045;-62
2022/06/25 11:18:15;;;;;;;8.80;1.77;;;;;;;;;;4979762;28;20031;-62
2022/06/25 11:20:43;;;;;;;9.63;2.20;;;;;;;;;;4985688;28;20387;-62
2022/06/25 11:23:13;;;;;;;7.88;2.33;;;;;;;;;;4984541;28;20027;-62
2022/06/25 11:28:53;;;;;;;11.85;3.20;;;;;;;;;;4981991;28;20117;-62
2022/06/25 11:31:21;;;;;;;7.55;2.00;;;;;;;;;;4981745;28;20046;-62
2022/06/25 11:33:48;;;;;;;6.78;1.92;;;;;;;;;;4985024;28;20028;-62
2022/06/25 11:36:15;;;;;;;9.77;2.80;;;;;;;;;;4983160;28;20033;-62
2022/06/25 11:38:42;;;;;;;4.53;1.77;;;;;;;;;;4983045;28;20027;-62
2022/06/25 11:41:18;;;;;;;4.40;1.73;;;;;;;;;;4985138;28;20023;-62
2022/06/25 11:43:45;;;;;;;7.68;1.60;;;;;;;;;;4991552;28;20034;-62
2022/06/25 11:46:11;;;;;;;6.32;1.45;;;;;;;;;;4978948;28;20046;-62
2022/06/25 11:48:37;;;;;;;7.45;1.42;;;;;;;;;;4989114;28;20097;-62
2022/06/25 11:51:03;;;;;;;14.13;2.22;;;;;;;;;;4975900;28;20027;-62
2022/06/25 11:53:30;;;;;;;6.88;1.30;;;;;;;;;;4989678;28;20031;-62
2022/06/25 11:55:59;;;;;;;3.83;1.30;;;;;;;;;;4978405;28;20030;-62
2022/06/25 11:58:26;;;;;;;6.25;1.75;;;;;;;;;;4987343;28;20030;-62
2022/06/25 12:01:00;;;;;;;6.38;1.75;;;;;;;;;;4980637;28;20031;-62
2022/06/25 12:03:27;;;;;;;8.00;1.88;;;;;;;;;;4979528;28;20077;-62
2022/06/25 12:05:54;;;;;;;7.70;1.60;;;;;;;;;;4982695;28;20045;-62
2022/06/25 12:08:21;;;;;;;7.30;1.60;;;;;;;;;;4979422;28;20070;-63
2022/06/25 12:10:48;;;;;;;5.68;1.50;;;;;;;;;;4978292;28;20106;-63
2022/06/25 12:13:21;;;;;;;7.15;1.90;;;;;;;;;;4986550;28;20445;-63
2022/06/25 12:15:48;;;;;;;10.93;1.55;;;;;;;;;;4989495;28;20026;-62
2022/06/25 12:18:14;;;;;;;4.40;1.65;;;;;;;;;;4978020;28;20026;-64
2022/06/25 12:20:53;;;;;;;16.27;1.88;;;;;;;;;;4990474;28;20027;-64
2022/06/25 12:23:20;;;;;;;5.30;1.67;;;;;;;;;;4977920;28;20081;-64
2022/06/25 12:25:47;;;;;;;4.75;1.80;;;;;;;;;;4983359;28;20084;-64
2022/06/25 12:28:14;;;;;;;7.00;1.83;;;;;;;;;;4981058;28;20105;-65
2022/06/25 12:30:40;;;;;;;7.63;2.35;;;;;;;;;;4976404;28;20054;-65
2022/06/25 12:33:09;;;;;;;7.93;1.50;;;;;;;;;;4983565;28;20022;-65
2022/06/25 12:35:40;;;;;;;5.57;1.45;;;;;;;;;;4988294;28;20022;-64
2022/06/25 12:38:07;;;;;;;6.93;1.98;;;;;;;;;;4988885;28;20026;-65
2022/06/25 12:40:39;;;;;;;4.60;1.45;;;;;;;;;;4977294;28;20081;-65
2022/06/25 12:43:09;;;;;;;7.00;1.43;;;;;;;;;;4975133;28;20034;-64
2022/06/25 12:45:36;;;;;;;7.57;1.40;;;;;;;;;;4982618;28;20394;-64
2022/06/25 12:48:03;;;;;;;4.60;1.58;;;;;;;;;;4987502;28;20030;-64
2022/06/25 12:50:30;;;;;;;6.82;1.58;;;;;;;;;;4978831;28;20031;-64
2022/06/25 12:52:57;;;;;;;7.00;1.90;;;;;;;;;;4981123;28;20026;-64
2022/06/25 12:55:24;;;;;;;8.23;1.50;;;;;;;;;;4975332;28;20022;-64
2022/06/25 12:57:50;;;;;;;5.78;1.67;;;;;;;;;;4973346;28;20042;-64
2022/06/25 13:00:27;;;;;;;3.85;1.38;;;;;;;;;;4975872;28;20113;-65
2022/06/25 13:02:54;;;;;;;6.75;0.90;;;;;;;;;;4979825;28;20034;-64
2022/06/25 13:05:20;;;;;;;3.17;0.88;;;;;;;;;;4979955;28;20073;-64
2022/06/25 13:07:47;;;;;;;7.00;1.02;;;;;;;;;;4982517;28;20028;-64
2022/06/25 13:10:14;;;;;;;1.83;1.05;;;;;;;;;;4976256;28;20026;-64
2022/06/25 13:12:42;;;;;;;5.25;1.45;;;;;;;;;;4982456;28;20037;-64
2022/06/25 13:15:08;;;;;;;3.92;1.17;;;;;;;;;;4978155;28;20133;-64
2022/06/25 13:17:35;;;;;;;2.60;0.80;;;;;;;;;;4984088;28;20034;-64
2022/06/25 13:20:02;;;;;;;2.88;1.20;;;;;;;;;;4980133;28;20105;-64
2022/06/25 13:22:28;;;;;;;6.47;1.40;;;;;;;;;;4982960;28;20033;-64
2022/06/25 13:24:54;;;;;;;6.90;1.50;;;;;;;;;;4981870;28;20031;-64
2022/06/25 13:27:20;;;;;;;4.95;1.45;;;;;;;;;;4983424;28;20050;-64
2022/06/25 13:29:46;;;;;;;4.72;1.10;;;;;;;;;;4977956;28;20528;-64
2022/06/25 13:32:17;;;;;;;4.15;1.35;;;;;;;;;;4976339;28;20033;-64
2022/06/25 13:34:44;;;;;;;3.22;1.33;;;;;;;;;;4976437;28;20048;-64
2022/06/25 13:37:10;;;;;;;4.75;1.13;;;;;;;;;;4981749;28;20073;-65
2022/06/25 13:39:36;;;;;;;4.97;1.13;;;;;;;;;;4972479;28;20082;-64
2022/06/25 13:42:03;;;;;;;2.55;1.00;;;;;;;;;;4985208;28;20046;-64
2022/06/25 13:44:30;;;;;;;1.85;1.20;;;;;;;;;;4976588;28;20031;-64
2022/06/25 13:46:57;;;;;;;5.97;1.17;;;;;;;;;;4980456;28;20109;-65
2022/06/25 13:49:23;;;;;;;7.07;1.23;;;;;;;;;;4980368;28;20121;-64
2022/06/25 13:51:53;;;;;;;3.70;0.88;;;;;;;;;;4982277;28;20034;-64
2022/06/25 13:54:19;;;;;;;5.80;0.90;;;;;;;;;;4983863;28;20038;-64
2022/06/25 13:56:45;;;;;;;8.48;1.27;;;;;;;;;;4985388;28;20027;-65
2022/06/25 13:59:11;;;;;;;5.05;1.50;;;;;;;;;;4981291;28;20025;-64
2022/06/25 14:01:37;;;;;;;8.55;1.25;;;;;;;;;;4982578;28;20054;-64
2022/06/25 14:04:04;;;;;;;5.55;1.50;;;;;;;;;;4985375;28;20033;-64
2022/06/25 14:06:32;;;;;;;3.38;0.90;;;;;;;;;;4980973;28;20022;-64
2022/06/25 14:08:58;;;;;;;3.83;1.05;;;;;;;;;;4983321;28;20111;-65
2022/06/25 14:11:24;;;;;;;3.08;0.95;;;;;;;;;;4976748;28;20070;-64
2022/06/25 14:13:50;;;;;;;5.85;1.10;;;;;;;;;;4971275;28;20410;-65
2022/06/25 14:16:16;;;;;;;8.35;1.23;;;;;;;;;;4978182;28;20018;-64
2022/06/25 14:18:43;;;;;;;8.25;1.58;;;;;;;;;;4985323;28;20447;-64
2022/06/25 14:21:09;;;;;;;5.78;1.33;;;;;;;;;;4981725;28;20018;-64
2022/06/25 14:23:35;;;;;;;6.38;1.50;;;;;;;;;;4985325;28;20098;-64
2022/06/25 14:26:01;;;;;;;7.35;1.17;;;;;;;;;;4982298;28;20125;-64
2022/06/25 14:28:27;;;;;;;3.22;1.15;;;;;;;;;;4978812;28;20407;-64
2022/06/25 14:30:53;;;;;;;4.20;1.42;;;;;;;;;;4982577;28;20063;-64
2022/06/25 14:33:20;;;;;;;5.65;1.50;;;;;;;;;;4979791;28;20364;-64
2022/06/25 14:44:01;;;;;;;5.20;1.50;;;;;;;;;;4988459;28;20027;-64
2022/06/25 14:46:27;;;;;;;4.60;0.93;;;;;;;;;;4975526;28;20026;-64
2022/06/25 14:48:53;;;;;;;6.05;1.33;;;;;;;;;;4983876;28;20031;-64
2022/06/25 14:51:19;;;;;;;6.03;1.30;;;;;;;;;;4984145;28;20352;-64
2022/06/25 14:53:46;;;;;;;4.95;1.67;;;;;;;;;;4978962;28;20026;-64
2022/06/25 14:56:12;;;;;;;6.25;1.15;;;;;;;;;;4980985;28;20065;-64
2022/06/25 14:58:38;;;;;;;4.20;1.77;;;;;;;;;;4991606;28;20030;-64
2022/06/25 15:01:04;;;;;;;5.68;1.10;;;;;;;;;;4977327;28;20548;-64
2022/06/25 15:03:30;;;;;;;7.43;1.23;;;;;;;;;;4981868;28;20023;-64
2022/06/25 15:05:57;;;;;;;7.97;1.17;;;;;;;;;;4983688;28;20069;-64
2022/06/25 15:08:23;;;;;;;4.88;1.25;;;;;;;;;;4983381;28;20043;-64
2022/06/25 15:10:49;;;;;;;6.70;1.30;;;;;;;;;;4985174;28;20374;-64
2022/06/25 15:13:15;;;;;;;6.60;1.17;;;;;;;;;;4980673;28;20479;-64
2022/06/25 15:15:42;;;;;;;5.72;1.00;;;;;;;;;;4985775;28;20030;-64